createdAt,value
2023-03-12T00:00:54.388Z,98430.72
2023-03-12T00:03:22.298Z,98438.44
2023-03-12T00:05:50.217Z,98440.47
2023-03-12T00:08:19.461Z,98434.19
2023-03-12T00:10:47.353Z,98438.34
2023-03-12T00:13:15.247Z,98444.53
2023-03-12T00:15:43.165Z,98437.06
2023-03-12T00:18:11.060Z,98434.44
2023-03-12T00:20:38.954Z,98434.03
2023-03-12T00:23:07.627Z,98442.75
2023-03-12T00:25:37.435Z,98435.28
2023-03-12T00:28:05.432Z,98438.66
2023-03-12T00:30:33.337Z,98440.53
2023-03-12T00:33:01.193Z,98436.47
2023-03-12T00:35:29.093Z,98439.59
2023-03-12T00:37:56.949Z,98448.06
2023-03-12T00:40:24.943Z,98441.47
2023-03-12T00:42:54.202Z,98450.88
2023-03-12T00:45:22.283Z,98441.28
2023-03-12T00:47:50.136Z,98437.50
2023-03-12T00:50:18.233Z,98434.19
2023-03-12T00:55:41.233Z,98439.78
2023-03-12T00:58:20.086Z,98433.75
2023-03-12T01:00:50.974Z,98439.88
2023-03-12T01:03:20.873Z,98417.50
2023-03-12T01:05:55.057Z,98440.88
2023-03-12T01:08:24.804Z,98429.81
2023-03-12T01:10:58.296Z,98436.91
2023-03-12T01:13:34.169Z,98425.19
2023-03-12T01:16:09.236Z,98431.97
2023-03-12T01:18:43.269Z,98431.72
2023-03-12T01:21:17.392Z,98431.16
2023-03-12T01:23:48.452Z,98430.13
2023-03-12T01:26:16.816Z,98417.06
2023-03-12T01:28:46.664Z,98425.63
2023-03-12T01:31:17.023Z,98436.72
2023-03-12T01:33:44.964Z,98434.66
2023-03-12T01:36:18.273Z,98428.56
2023-03-12T01:38:46.149Z,98439.47
2023-03-12T01:41:14.353Z,98442.00
2023-03-12T01:43:42.447Z,98422.19
2023-03-12T01:46:30.618Z,98429.59
2023-03-12T01:49:06.250Z,98430.25
2023-03-12T01:51:39.413Z,98425.75
2023-03-12T01:54:10.524Z,98405.63
2023-03-12T01:56:39.493Z,98414.00
2023-03-12T01:59:14.776Z,98406.09
2023-03-12T02:01:44.915Z,98401.19
2023-03-12T02:04:14.069Z,98417.41
2023-03-12T02:06:49.481Z,98420.19
2023-03-12T02:09:20.233Z,98428.97
2023-03-12T02:11:48.428Z,98417.56
2023-03-12T02:14:16.655Z,98412.31
2023-03-12T02:16:46.444Z,98420.13
2023-03-12T02:19:22.259Z,98419.09
2023-03-12T02:21:50.532Z,98415.69
2023-03-12T02:24:27.126Z,98423.22
2023-03-12T02:26:57.315Z,98406.94
2023-03-12T02:29:26.572Z,98403.38
2023-03-12T02:31:57.814Z,98399.81
2023-03-12T02:34:25.719Z,98390.66
2023-03-12T02:36:53.670Z,98400.84
2023-03-12T02:39:21.538Z,98386.44
2023-03-12T02:41:53.696Z,98393.97
2023-03-12T02:44:25.487Z,98391.06
2023-03-12T02:46:55.907Z,98388.91
2023-03-12T02:49:26.597Z,98391.34
2023-03-12T02:51:55.278Z,98366.59
2023-03-12T02:54:24.592Z,98363.75
2023-03-12T02:56:53.542Z,98353.81
2023-03-12T02:59:26.225Z,98343.59
2023-03-12T03:01:55.642Z,98342.69
2023-03-12T03:04:24.011Z,98353.84
2023-03-12T03:06:52.471Z,98366.94
2023-03-12T03:09:22.214Z,98343.69
2023-03-12T03:11:50.297Z,98361.56
2023-03-12T03:14:18.210Z,98373.56
2023-03-12T03:16:47.504Z,98369.53
2023-03-12T03:19:15.566Z,98364.94
2023-03-12T03:21:43.983Z,98369.22
2023-03-12T03:24:12.156Z,98369.50
2023-03-12T03:26:40.200Z,98364.94
2023-03-12T03:29:08.165Z,98369.50
2023-03-12T03:31:36.091Z,98366.44
2023-03-12T03:34:05.373Z,98376.69
2023-03-12T03:36:33.312Z,98367.47
2023-03-12T03:39:01.354Z,98373.22
2023-03-12T03:41:29.252Z,98378.88
2023-03-12T03:43:59.518Z,98379.44
2023-03-12T03:46:27.963Z,98374.25
2023-03-12T03:48:55.891Z,98351.13
2023-03-12T03:51:25.155Z,98373.66
2023-03-12T03:53:53.759Z,98363.94
2023-03-12T03:56:22.391Z,98360.06
2023-03-12T03:58:51.063Z,98355.50
2023-03-12T04:01:20.025Z,98368.00
2023-03-12T04:03:48.644Z,98352.47
2023-03-12T04:06:17.411Z,98363.84
2023-03-12T04:08:47.479Z,98342.19
2023-03-12T04:11:18.247Z,98339.88
2023-03-12T04:13:47.387Z,98348.63
2023-03-12T04:16:17.066Z,98354.97
2023-03-12T04:18:45.924Z,98356.50
2023-03-12T04:21:15.822Z,98361.03
2023-03-12T04:23:44.612Z,98353.97
2023-03-12T04:26:15.197Z,98363.78
2023-03-12T04:28:43.846Z,98354.59
2023-03-12T04:31:13.886Z,98352.16
2023-03-12T04:33:42.976Z,98349.44
2023-03-12T04:36:11.441Z,98345.44
2023-03-12T04:38:40.161Z,98355.97
2023-03-12T04:41:10.930Z,98353.34
2023-03-12T04:43:41.218Z,98366.84
2023-03-12T04:46:10.690Z,98353.22
2023-03-12T04:48:39.413Z,98373.06
2023-03-12T04:51:08.404Z,98367.38
2023-03-12T04:53:36.351Z,98380.88
2023-03-12T04:56:04.519Z,98383.22
2023-03-12T04:58:32.443Z,98356.41
2023-03-12T05:01:01.878Z,98357.47
2023-03-12T05:03:30.066Z,98364.53
2023-03-12T05:05:58.256Z,98371.63
2023-03-12T05:08:26.235Z,98376.47
2023-03-12T05:10:54.201Z,98379.44
2023-03-12T05:13:24.281Z,98378.59
2023-03-12T05:15:53.444Z,98381.03
2023-03-12T05:18:22.819Z,98383.03
2023-03-12T05:21:00.151Z,98393.28
2023-03-12T05:23:28.277Z,98390.22
2023-03-12T05:25:56.477Z,98389.38
2023-03-12T05:28:28.503Z,98392.94
2023-03-12T05:30:57.311Z,98388.63
2023-03-12T05:33:27.417Z,98371.53
2023-03-12T05:35:55.651Z,98375.75
2023-03-12T05:38:23.542Z,98376.25
2023-03-12T05:40:55.064Z,98371.41
2023-03-12T05:43:23.609Z,98380.28
2023-03-12T05:45:51.635Z,98382.41
2023-03-12T05:48:19.849Z,98383.03
2023-03-12T05:50:49.159Z,98399.09
2023-03-12T05:53:17.129Z,98379.88
2023-03-12T05:55:45.066Z,98379.66
2023-03-12T05:58:13.080Z,98388.09
2023-03-12T06:00:43.772Z,98399.31
2023-03-12T06:03:11.874Z,98386.41
2023-03-12T06:05:40.233Z,98397.19
2023-03-12T06:08:09.558Z,98400.78
2023-03-12T06:10:39.287Z,98394.31
2023-03-12T06:13:07.168Z,98410.41
2023-03-12T06:15:35.047Z,98400.06
2023-03-12T06:18:02.932Z,98411.47
2023-03-12T06:20:30.958Z,98397.59
2023-03-12T06:22:58.841Z,98410.91
2023-03-12T06:25:28.193Z,98411.88
2023-03-12T06:27:56.078Z,98405.84
2023-03-12T06:30:23.989Z,98408.59
2023-03-12T06:32:51.971Z,98391.28
2023-03-12T06:35:20.084Z,98399.09
2023-03-12T06:37:48.144Z,98404.91
2023-03-12T06:40:16.190Z,98411.06
2023-03-12T06:42:45.534Z,98402.03
2023-03-12T06:45:13.494Z,98425.53
2023-03-12T06:47:41.415Z,98419.50
2023-03-12T06:50:10.689Z,98438.63
2023-03-12T06:52:38.573Z,98441.78
2023-03-12T06:55:07.470Z,98439.03
2023-03-12T06:57:35.339Z,98433.75
2023-03-12T07:00:05.714Z,98441.59
2023-03-12T07:02:33.764Z,98437.56
2023-03-12T07:05:01.797Z,98426.53
2023-03-12T07:07:29.733Z,98451.66
2023-03-12T07:09:57.618Z,98458.81
2023-03-12T07:12:25.608Z,98452.56
2023-03-12T07:14:53.511Z,98459.66
2023-03-12T07:17:24.636Z,98449.28
2023-03-12T07:19:52.751Z,98471.19
2023-03-12T07:22:20.959Z,98462.00
2023-03-12T07:24:48.909Z,98474.69
2023-03-12T07:27:16.834Z,98468.94
2023-03-12T07:29:45.831Z,98466.94
2023-03-12T07:32:13.912Z,98468.53
2023-03-12T07:34:43.421Z,98470.84
2023-03-12T07:37:11.360Z,98473.88
2023-03-12T07:39:39.623Z,98456.53
2023-03-12T07:42:07.970Z,98472.25
2023-03-12T07:44:36.860Z,98468.41
2023-03-12T07:47:20.671Z,98470.97
2023-03-12T07:49:52.376Z,98472.44
2023-03-12T07:52:20.540Z,98473.13
2023-03-12T07:54:49.123Z,98483.19
2023-03-12T07:57:17.240Z,98477.25
2023-03-12T07:59:45.234Z,98484.13
2023-03-12T08:02:13.230Z,98492.06
2023-03-12T08:04:41.221Z,98485.84
2023-03-12T08:07:10.684Z,98493.94
2023-03-12T08:09:39.828Z,98502.84
2023-03-12T08:12:08.479Z,98498.06
2023-03-12T08:14:36.954Z,98504.59
2023-03-12T08:17:05.780Z,98497.13
2023-03-12T08:19:36.598Z,98499.19
2023-03-12T08:22:05.978Z,98495.38
2023-03-12T08:24:36.821Z,98497.19
2023-03-12T08:27:08.751Z,98500.66
2023-03-12T08:29:40.208Z,98494.94
2023-03-12T08:32:10.950Z,98481.97
2023-03-12T08:34:39.287Z,98499.75
2023-03-12T08:37:07.708Z,98504.09
2023-03-12T08:39:37.192Z,98503.00
2023-03-12T08:42:05.716Z,98497.59
2023-03-12T08:44:33.615Z,98496.63
2023-03-12T08:47:01.549Z,98497.25
2023-03-12T08:49:29.466Z,98506.81
2023-03-12T08:51:57.426Z,98506.56
2023-03-12T08:54:25.296Z,98508.72
2023-03-12T08:56:54.947Z,98513.44
2023-03-12T08:59:23.568Z,98503.09
2023-03-12T09:01:51.828Z,98507.34
2023-03-12T09:04:20.023Z,98516.75
2023-03-12T09:06:48.097Z,98510.59
2023-03-12T09:09:16.149Z,98507.81
2023-03-12T09:11:44.157Z,98510.47
2023-03-12T09:15:01.497Z,98521.22
2023-03-12T09:17:03.277Z,98519.19
2023-03-12T09:19:32.016Z,98526.31
2023-03-12T09:22:06.289Z,98529.81
2023-03-12T09:24:34.751Z,98532.72
2023-03-12T09:27:07.148Z,98538.03
2023-03-12T09:29:59.603Z,98549.97
2023-03-12T09:32:29.652Z,98542.00
2023-03-12T09:34:58.967Z,98541.53
2023-03-12T09:37:26.904Z,98543.56
2023-03-12T09:39:55.294Z,98548.78
2023-03-12T09:42:26.478Z,98536.22
2023-03-12T09:45:01.514Z,98545.25
2023-03-12T09:47:33.004Z,98534.41
2023-03-12T09:50:06.748Z,98561.19
2023-03-12T09:52:40.941Z,98557.81
2023-03-12T09:55:15.034Z,98576.19
2023-03-12T09:57:44.212Z,98576.16
2023-03-12T10:00:17.621Z,98585.44
2023-03-12T10:03:12.069Z,98585.34
2023-03-12T10:05:46.857Z,98594.88
2023-03-12T10:08:26.456Z,98596.53
2023-03-12T10:11:03.568Z,98604.88
2023-03-12T10:13:54.675Z,98608.25
2023-03-12T10:16:43.572Z,98605.97
2023-03-12T10:19:29.130Z,98603.78
2023-03-12T10:22:02.973Z,98610.44
2023-03-12T10:24:42.066Z,98609.72
2023-03-12T10:27:15.113Z,98604.41
2023-03-12T10:29:45.705Z,98613.47
2023-03-12T10:32:19.200Z,98604.66
2023-03-12T10:34:49.178Z,98622.75
2023-03-12T10:37:20.612Z,98626.03
2023-03-12T10:39:49.855Z,98622.53
2023-03-12T10:42:19.937Z,98628.91
2023-03-12T10:44:51.109Z,98622.03
2023-03-12T10:47:41.937Z,98625.78
2023-03-12T10:50:17.277Z,98636.28
2023-03-12T10:52:45.968Z,98609.84
2023-03-12T10:55:21.808Z,98628.19
2023-03-12T10:57:50.367Z,98628.91
2023-03-12T11:00:23.221Z,98632.06
2023-03-12T11:03:03.411Z,98636.28
2023-03-12T11:05:33.270Z,98632.66
2023-03-12T11:08:05.577Z,98634.34
2023-03-12T11:10:44.583Z,98622.63
2023-03-12T11:13:37.013Z,98641.59
2023-03-12T11:16:26.916Z,98627.78
2023-03-12T11:19:01.516Z,98641.41
2023-03-12T11:21:30.601Z,98632.22
2023-03-12T11:24:10.690Z,98644.16
2023-03-12T11:26:48.606Z,98641.66
2023-03-12T11:29:25.313Z,98630.94
2023-03-12T11:32:02.351Z,98634.72
2023-03-12T11:34:34.342Z,98623.78
2023-03-12T11:37:08.917Z,98635.59
2023-03-12T11:39:50.083Z,98630.47
2023-03-12T11:42:28.960Z,98620.56
2023-03-12T11:45:07.177Z,98625.00
2023-03-12T11:47:50.387Z,98623.72
2023-03-12T11:50:29.259Z,98613.59
2023-03-12T11:53:14.019Z,98611.53
2023-03-12T11:55:55.137Z,98624.56
2023-03-12T11:58:37.676Z,98591.78
2023-03-12T12:01:12.073Z,98614.63
2023-03-12T12:04:02.095Z,98595.56
2023-03-12T12:06:39.170Z,98618.59
2023-03-12T12:09:19.035Z,98620.13
2023-03-12T12:11:58.268Z,98625.16
2023-03-12T12:14:43.486Z,98609.16
2023-03-12T12:17:25.065Z,98625.78
2023-03-12T12:20:10.150Z,98626.16
2023-03-12T12:22:52.730Z,98630.25
2023-03-12T12:25:30.325Z,98624.56
2023-03-12T12:28:25.391Z,98618.59
2023-03-12T12:31:10.293Z,98620.97
2023-03-12T12:33:55.952Z,98626.31
2023-03-12T12:36:26.942Z,98626.91
2023-03-12T12:39:01.600Z,98614.91
2023-03-12T12:41:35.802Z,98628.75
2023-03-12T12:44:07.752Z,98623.91
2023-03-12T12:46:39.018Z,98625.88
2023-03-12T12:49:13.324Z,98603.69
2023-03-12T12:51:45.661Z,98613.91
2023-03-12T12:54:22.084Z,98620.38
2023-03-12T12:56:55.068Z,98619.41
2023-03-12T12:59:32.214Z,98597.72
2023-03-12T13:02:02.042Z,98609.78
2023-03-12T13:04:33.863Z,98591.41
2023-03-12T13:07:04.650Z,98595.31
2023-03-12T13:09:43.523Z,98606.91
2023-03-12T13:12:22.680Z,98597.72
2023-03-12T13:14:51.155Z,98594.66
2023-03-12T13:17:31.012Z,98589.66
2023-03-12T13:20:13.168Z,98605.06
2023-03-12T13:23:01.213Z,98596.09
2023-03-12T13:25:54.549Z,98587.78
2023-03-12T13:28:35.392Z,98579.31
2023-03-12T13:31:25.196Z,98573.34
2023-03-12T13:33:54.903Z,98582.78
2023-03-12T13:36:25.313Z,98605.53
2023-03-12T13:39:01.818Z,98591.19
2023-03-12T13:41:37.023Z,98604.38
2023-03-12T13:44:33.041Z,98593.69
2023-03-12T13:47:03.632Z,98593.56
2023-03-12T13:49:38.580Z,98586.72
2023-03-12T13:52:22.234Z,98581.59
2023-03-12T13:54:58.746Z,98590.34
2023-03-12T13:57:38.495Z,98569.47
2023-03-12T14:00:13.216Z,98558.63
2023-03-12T14:02:48.176Z,98575.41
2023-03-12T14:05:17.909Z,98573.25
2023-03-12T14:08:04.680Z,98554.78
2023-03-12T14:10:44.733Z,98556.06
2023-03-12T14:13:30.294Z,98542.53
2023-03-12T14:16:04.976Z,98562.75
2023-03-12T14:18:37.681Z,98546.63
2023-03-12T14:21:10.636Z,98551.41
2023-03-12T14:23:42.149Z,98566.59
2023-03-12T14:26:21.973Z,98549.22
2023-03-12T14:29:38.621Z,98557.78
2023-03-12T14:32:25.742Z,98491.34
2023-03-12T14:35:15.148Z,98494.53
2023-03-12T14:37:48.245Z,98560.06
2023-03-12T14:40:26.903Z,98567.09
2023-03-12T14:42:55.748Z,98562.44
2023-03-12T14:45:25.925Z,98564.72
2023-03-12T14:47:55.957Z,98556.03
2023-03-12T14:50:25.922Z,98552.66
2023-03-12T14:52:54.859Z,98538.06
2023-03-12T14:55:25.191Z,98527.38
2023-03-12T14:58:05.920Z,98560.38
2023-03-12T15:00:35.424Z,98553.59
2023-03-12T15:03:06.550Z,98558.03
2023-03-12T15:05:35.225Z,98565.56
2023-03-12T15:08:05.497Z,98583.16
2023-03-12T15:10:34.768Z,98568.22
2023-03-12T15:13:04.402Z,98561.09
2023-03-12T15:15:40.322Z,98566.44
2023-03-12T15:18:10.121Z,98569.66
2023-03-12T15:20:42.159Z,98548.75
2023-03-12T15:23:13.301Z,98569.94
2023-03-12T15:25:41.802Z,98577.38
2023-03-12T15:28:26.948Z,98576.94
2023-03-12T15:31:12.047Z,98573.19
2023-03-12T15:33:40.440Z,98557.59
2023-03-12T15:36:24.242Z,98571.19
2023-03-12T15:38:54.996Z,98557.00
2023-03-12T15:41:26.980Z,98559.38
2023-03-12T15:43:57.891Z,98550.41
2023-03-12T15:46:28.766Z,98556.88
2023-03-12T15:48:58.939Z,98556.88
2023-03-12T15:51:34.258Z,98552.50
2023-03-12T15:54:03.998Z,98541.03
2023-03-12T15:56:34.130Z,98551.28
2023-03-12T15:59:05.643Z,98550.56
2023-03-12T16:01:47.532Z,98551.56
2023-03-12T16:04:15.624Z,98544.50
2023-03-12T16:06:44.369Z,98556.88
2023-03-12T16:09:17.354Z,98550.66
2023-03-12T16:11:45.615Z,98556.44
2023-03-12T16:14:18.614Z,98521.50
2023-03-12T16:16:48.475Z,98556.88
2023-03-12T16:19:18.302Z,98564.88
2023-03-12T16:21:46.880Z,98543.56
2023-03-12T16:24:16.546Z,98548.16
2023-03-12T16:26:49.926Z,98539.22
2023-03-12T16:29:19.424Z,98547.22
2023-03-12T16:31:57.073Z,98546.38
2023-03-12T16:34:25.365Z,98517.75
2023-03-12T16:36:53.715Z,98531.91
2023-03-12T16:39:21.822Z,98530.25
2023-03-12T16:41:49.785Z,98515.78
2023-03-12T16:44:22.528Z,98526.88
2023-03-12T16:46:51.934Z,98538.38
2023-03-12T16:49:21.110Z,98525.47
2023-03-12T16:51:49.239Z,98525.47
2023-03-12T16:54:17.156Z,98489.25
2023-03-12T16:56:48.016Z,98520.84
2023-03-12T16:59:25.178Z,98492.59
2023-03-12T17:01:54.732Z,98508.47
2023-03-12T17:04:22.688Z,98511.13
2023-03-12T17:06:50.671Z,98514.50
2023-03-12T17:09:20.136Z,98509.47
2023-03-12T17:11:55.526Z,98534.19
2023-03-12T17:14:24.273Z,98523.75
2023-03-12T17:16:52.212Z,98529.94
2023-03-12T17:19:21.699Z,98534.00
2023-03-12T17:21:50.674Z,98539.88
2023-03-12T17:24:18.672Z,98530.47
2023-03-12T17:26:47.000Z,98518.34
2023-03-12T17:29:14.971Z,98535.13
2023-03-12T17:31:42.854Z,98541.53
2023-03-12T17:34:10.855Z,98540.00
2023-03-12T17:36:41.142Z,98543.22
2023-03-12T17:39:09.121Z,98554.81
2023-03-12T17:41:37.048Z,98550.16
2023-03-12T17:44:07.190Z,98547.69
2023-03-12T17:46:39.085Z,98558.78
2023-03-12T17:49:08.535Z,98554.09
2023-03-12T17:51:36.439Z,98568.38
2023-03-12T17:54:05.787Z,98578.78
2023-03-12T17:56:33.678Z,98585.91
2023-03-12T17:59:01.613Z,98579.25
2023-03-12T18:01:29.494Z,98591.84
2023-03-12T18:03:57.385Z,98594.69
2023-03-12T18:06:25.770Z,98592.47
2023-03-12T18:08:53.757Z,98592.31
2023-03-12T18:11:23.157Z,98597.56
2023-03-12T18:13:51.111Z,98601.78
2023-03-12T18:16:19.072Z,98591.72
2023-03-12T18:18:47.060Z,98600.81
2023-03-12T18:21:14.985Z,98606.41
2023-03-12T18:23:43.872Z,98602.41
2023-03-12T18:26:11.789Z,98602.50
2023-03-12T18:28:41.078Z,98607.34
2023-03-12T18:31:09.192Z,98606.03
2023-03-12T18:33:38.095Z,98599.63
2023-03-12T18:36:06.611Z,98598.19
2023-03-12T18:38:34.963Z,98606.88
2023-03-12T18:41:04.984Z,98601.91
2023-03-12T18:43:32.974Z,98584.38
2023-03-12T18:46:02.377Z,98593.41
2023-03-12T18:48:30.386Z,98599.31
2023-03-12T18:51:00.192Z,98590.81
2023-03-12T18:53:33.903Z,98591.19
2023-03-12T18:56:06.429Z,98598.03
2023-03-12T18:58:38.769Z,98593.97
2023-03-12T19:01:11.633Z,98602.41
2023-03-12T19:03:42.570Z,98586.00
2023-03-12T19:06:20.511Z,98595.28
2023-03-12T19:08:59.583Z,98607.84
2023-03-12T19:11:32.749Z,98591.59
2023-03-12T19:14:02.433Z,98595.94
2023-03-12T19:16:34.326Z,98598.13
2023-03-12T19:19:03.212Z,98604.84
2023-03-12T19:25:11.779Z,98598.59
2023-03-12T19:27:39.839Z,98590.22
2023-03-12T19:30:09.216Z,98593.25
2023-03-12T19:32:43.716Z,98598.97
2023-03-12T19:35:14.594Z,98608.28
2023-03-12T19:37:43.718Z,98606.44
2023-03-12T19:40:13.541Z,98615.28
2023-03-12T19:42:41.687Z,98608.16
2023-03-12T19:45:11.176Z,98613.59
2023-03-12T19:47:40.882Z,98614.44
2023-03-12T19:50:10.150Z,98622.69
2023-03-12T19:52:38.124Z,98618.09
2023-03-12T19:55:06.779Z,98618.94
2023-03-12T19:57:35.262Z,98623.19
2023-03-12T20:00:07.327Z,98626.56
2023-03-12T20:02:35.471Z,98624.19
2023-03-12T20:05:05.410Z,98621.13
2023-03-12T20:07:33.797Z,98625.59
2023-03-12T20:10:01.732Z,98631.53
2023-03-12T20:12:30.438Z,98616.19
2023-03-12T20:14:58.409Z,98636.84
2023-03-12T20:17:26.497Z,98625.03
2023-03-12T20:19:56.015Z,98633.78
2023-03-12T20:22:26.289Z,98631.69
2023-03-12T20:24:54.389Z,98640.59
2023-03-12T20:27:22.357Z,98642.78
2023-03-12T20:29:50.897Z,98647.00
2023-03-12T20:32:19.560Z,98646.41
2023-03-12T20:34:47.516Z,98640.97
2023-03-12T20:37:15.469Z,98637.59
2023-03-12T20:39:44.976Z,98644.25
2023-03-12T20:42:12.913Z,98636.59
2023-03-12T20:44:40.972Z,98641.34
2023-03-12T20:47:08.930Z,98637.63
2023-03-12T20:49:36.851Z,98630.69
2023-03-12T20:52:05.052Z,98638.53
2023-03-12T20:54:33.257Z,98623.81
2023-03-12T20:57:02.614Z,98626.09
2023-03-12T20:59:30.554Z,98616.56
2023-03-12T21:01:59.291Z,98616.06
2023-03-12T21:04:27.305Z,98611.63
2023-03-12T21:06:55.971Z,98607.06
2023-03-12T21:09:24.136Z,98605.09
2023-03-12T21:11:52.006Z,98602.06
2023-03-12T21:14:21.278Z,98590.34
2023-03-12T21:16:49.171Z,98595.28
2023-03-12T21:19:17.208Z,98596.13
2023-03-12T21:21:45.233Z,98584.41
2023-03-12T21:24:13.178Z,98589.97
2023-03-12T21:26:41.078Z,98575.75
2023-03-12T21:29:09.082Z,98587.81
2023-03-12T21:31:38.405Z,98580.72
2023-03-12T21:34:09.006Z,98592.41
2023-03-12T21:36:37.459Z,98596.78
2023-03-12T21:39:05.559Z,98589.72
2023-03-12T21:41:33.484Z,98590.38
2023-03-12T21:44:02.441Z,98584.81
2023-03-12T21:46:30.743Z,98591.38
2023-03-12T21:49:00.698Z,98568.94
2023-03-12T21:51:28.712Z,98574.00
2023-03-12T21:53:58.216Z,98560.38
2023-03-12T21:56:28.682Z,98554.22
2023-03-12T21:58:58.944Z,98538.03
2023-03-12T22:01:29.790Z,98537.00
2023-03-12T22:04:01.153Z,98531.81
2023-03-12T22:06:29.112Z,98546.34
2023-03-12T22:08:57.185Z,98547.78
2023-03-12T22:11:25.075Z,98553.94
2023-03-12T22:13:53.065Z,98545.63
2023-03-12T22:16:21.208Z,98543.75
2023-03-12T22:18:49.174Z,98529.56
2023-03-12T22:21:19.989Z,98530.88
2023-03-12T22:23:51.081Z,98522.66
2023-03-12T22:26:20.034Z,98518.34
2023-03-12T22:28:50.806Z,98514.09
2023-03-12T22:31:20.115Z,98509.19
2023-03-12T22:33:48.857Z,98502.09
2023-03-12T22:36:19.969Z,98488.78
2023-03-12T22:38:48.725Z,98476.16
2023-03-12T22:41:18.908Z,98494.97
2023-03-12T22:43:47.430Z,98485.59
2023-03-12T22:46:17.017Z,98475.34
2023-03-12T22:48:45.220Z,98480.25
2023-03-12T22:51:13.818Z,98478.38
2023-03-12T22:53:43.283Z,98473.56
2023-03-12T22:56:13.948Z,98487.59
2023-03-12T22:58:42.504Z,98482.53
2023-03-12T23:01:12.464Z,98482.00
2023-03-12T23:03:41.897Z,98460.09
2023-03-12T23:06:10.364Z,98473.63
2023-03-12T23:08:38.958Z,98460.69
2023-03-12T23:11:09.539Z,98460.16
2023-03-12T23:13:41.416Z,98457.94
2023-03-12T23:16:11.313Z,98462.22
2023-03-12T23:18:39.858Z,98450.94
2023-03-12T23:21:10.095Z,98444.34
2023-03-12T23:23:39.606Z,98437.06
2023-03-12T23:26:09.324Z,98441.56
2023-03-12T23:28:37.241Z,98421.50
2023-03-12T23:31:09.752Z,98432.56
2023-03-12T23:33:40.342Z,98437.22
2023-03-12T23:36:11.722Z,98434.41
2023-03-12T23:38:40.802Z,98432.34
2023-03-12T23:41:12.928Z,98435.69
2023-03-12T23:43:41.040Z,98441.13
2023-03-12T23:46:09.971Z,98438.06
2023-03-12T23:48:39.238Z,98431.34
2023-03-12T23:51:09.275Z,98436.13
2023-03-12T23:53:38.388Z,98425.00
2023-03-12T23:56:10.676Z,98435.13
2023-03-12T23:58:39.147Z,98433.28
